sensor_id;sensor_type;location;lat;lon;timestamp;P1;durP1;ratioP1;P2;durP2;ratioP2
69057;SDS011;56128;37.534;-122.308;2024-03-29T00:01:26;13.38;;;2.50;;
69057;SDS011;56128;37.534;-122.308;2024-03-29T00:03:52;13.05;;;2.45;;
69057;SDS011;56128;37.534;-122.308;2024-03-29T00:06:19;9.30;;;2.25;;
69057;SDS011;56128;37.534;-122.308;2024-03-29T00:08:45;12.38;;;2.88;;
69057;SDS011;56128;37.534;-122.308;2024-03-29T00:11:11;13.75;;;2.83;;
69057;SDS011;56128;37.534;-122.308;2024-03-29T00:13:38;9.50;;;2.03;;
69057;SDS011;56128;37.534;-122.308;2024-03-29T00:16:04;10.63;;;2.90;;
69057;SDS011;56128;37.534;-122.308;2024-03-29T00:18:31;13.27;;;2.85;;
69057;SDS011;56128;37.534;-122.308;2024-03-29T00:20:58;13.73;;;2.72;;
69057;SDS011;56128;37.534;-122.308;2024-03-29T00:23:24;17.60;;;3.00;;
69057;SDS011;56128;37.534;-122.308;2024-03-29T00:25:50;13.52;;;2.75;;
69057;SDS011;56128;37.534;-122.308;2024-03-29T00:28:18;12.20;;;2.63;;
69057;SDS011;56128;37.534;-122.308;2024-03-29T00:30:44;12.35;;;2.60;;
69057;SDS011;56128;37.534;-122.308;2024-03-29T00:33:10;14.77;;;3.42;;
69057;SDS011;56128;37.534;-122.308;2024-03-29T00:35:36;10.40;;;2.40;;
69057;SDS011;56128;37.534;-122.308;2024-03-29T00:38:03;9.23;;;2.58;;
69057;SDS011;56128;37.534;-122.308;2024-03-29T00:40:29;13.65;;;3.22;;
69057;SDS011;56128;37.534;-122.308;2024-03-29T00:42:55;13.45;;;2.45;;
69057;SDS011;56128;37.534;-122.308;2024-03-29T00:45:21;17.73;;;3.40;;
69057;SDS011;56128;37.534;-122.308;2024-03-29T00:47:47;14.00;;;2.83;;
69057;SDS011;56128;37.534;-122.308;2024-03-29T00:50:14;12.68;;;2.78;;
69057;SDS011;56128;37.534;-122.308;2024-03-29T00:52:40;15.18;;;2.78;;
69057;SDS011;56128;37.534;-122.308;2024-03-29T00:55:06;11.10;;;2.33;;
69057;SDS011;56128;37.534;-122.308;2024-03-29T00:57:33;14.43;;;2.65;;
69057;SDS011;56128;37.534;-122.308;2024-03-29T00:59:59;12.68;;;2.30;;
69057;SDS011;56128;37.534;-122.308;2024-03-29T01:02:26;12.85;;;2.90;;
69057;SDS011;56128;37.534;-122.308;2024-03-29T01:04:52;14.02;;;2.72;;
69057;SDS011;56128;37.534;-122.308;2024-03-29T01:07:18;13.88;;;2.40;;
69057;SDS011;56128;37.534;-122.308;2024-03-29T01:09:44;19.90;;;2.97;;
69057;SDS011;56128;37.534;-122.308;2024-03-29T01:12:11;11.90;;;2.55;;
69057;SDS011;56128;37.534;-122.308;2024-03-29T01:14:37;15.10;;;3.25;;
69057;SDS011;56128;37.534;-122.308;2024-03-29T01:17:03;15.05;;;3.33;;
69057;SDS011;56128;37.534;-122.308;2024-03-29T01:19:32;13.57;;;3.17;;
69057;SDS011;56128;37.534;-122.308;2024-03-29T01:21:58;14.18;;;2.08;;
69057;SDS011;56128;37.534;-122.308;2024-03-29T01:24:24;18.15;;;2.83;;
69057;SDS011;56128;37.534;-122.308;2024-03-29T01:26:51;14.32;;;3.20;;
69057;SDS011;56128;37.534;-122.308;2024-03-29T01:29:17;12.25;;;3.08;;
69057;SDS011;56128;37.534;-122.308;2024-03-29T01:31:44;14.00;;;2.75;;
69057;SDS011;56128;37.534;-122.308;2024-03-29T01:34:10;14.45;;;2.97;;
69057;SDS011;56128;37.534;-122.308;2024-03-29T01:36:36;15.05;;;3.17;;
69057;SDS011;56128;37.534;-122.308;2024-03-29T01:39:03;12.32;;;2.50;;
69057;SDS011;56128;37.534;-122.308;2024-03-29T01:41:29;13.32;;;3.00;;
69057;SDS011;56128;37.534;-122.308;2024-03-29T01:43:56;12.73;;;3.10;;
69057;SDS011;56128;37.534;-122.308;2024-03-29T01:46:25;11.82;;;2.35;;
69057;SDS011;56128;37.534;-122.308;2024-03-29T01:48:53;14.07;;;2.92;;
69057;SDS011;56128;37.534;-122.308;2024-03-29T01:51:21;14.18;;;3.00;;
69057;SDS011;56128;37.534;-122.308;2024-03-29T01:53:49;16.13;;;2.85;;
69057;SDS011;56128;37.534;-122.308;2024-03-29T01:56:19;12.25;;;3.50;;
69057;SDS011;56128;37.534;-122.308;2024-03-29T01:58:51;16.83;;;2.88;;
69057;SDS011;56128;37.534;-122.308;2024-03-29T02:03:47;20.38;;;3.60;;
69057;SDS011;56128;37.534;-122.308;2024-03-29T02:06:18;14.00;;;2.83;;
69057;SDS011;56128;37.534;-122.308;2024-03-29T02:08:44;14.80;;;2.78;;
69057;SDS011;56128;37.534;-122.308;2024-03-29T02:11:12;16.50;;;3.15;;
69057;SDS011;56128;37.534;-122.308;2024-03-29T02:13:39;14.18;;;2.83;;
69057;SDS011;56128;37.534;-122.308;2024-03-29T02:16:06;19.00;;;2.95;;
69057;SDS011;56128;37.534;-122.308;2024-03-29T02:18:32;17.27;;;3.13;;
69057;SDS011;56128;37.534;-122.308;2024-03-29T02:21:01;11.23;;;2.80;;
69057;SDS011;56128;37.534;-122.308;2024-03-29T02:23:27;14.32;;;2.95;;
69057;SDS011;56128;37.534;-122.308;2024-03-29T02:25:57;14.57;;;2.70;;
69057;SDS011;56128;37.534;-122.308;2024-03-29T02:28:24;11.48;;;2.53;;
69057;SDS011;56128;37.534;-122.308;2024-03-29T02:30:51;17.08;;;2.92;;
69057;SDS011;56128;37.534;-122.308;2024-03-29T02:33:18;16.25;;;2.90;;
69057;SDS011;56128;37.534;-122.308;2024-03-29T02:35:46;16.75;;;2.40;;
69057;SDS011;56128;37.534;-122.308;2024-03-29T02:38:13;13.07;;;2.50;;
69057;SDS011;56128;37.534;-122.308;2024-03-29T02:40:39;11.45;;;2.45;;
69057;SDS011;56128;37.534;-122.308;2024-03-29T02:43:06;9.32;;;2.20;;
69057;SDS011;56128;37.534;-122.308;2024-03-29T02:45:32;13.80;;;2.33;;
69057;SDS011;56128;37.534;-122.308;2024-03-29T02:47:58;15.77;;;2.45;;
69057;SDS011;56128;37.534;-122.308;2024-03-29T02:50:25;10.73;;;2.08;;
69057;SDS011;56128;37.534;-122.308;2024-03-29T02:52:51;13.15;;;3.28;;
69057;SDS011;56128;37.534;-122.308;2024-03-29T02:55:19;10.15;;;2.60;;
69057;SDS011;56128;37.534;-122.308;2024-03-29T02:57:45;15.15;;;2.63;;
69057;SDS011;56128;37.534;-122.308;2024-03-29T03:00:11;12.13;;;2.40;;
69057;SDS011;56128;37.534;-122.308;2024-03-29T03:02:38;13.93;;;3.22;;
69057;SDS011;56128;37.534;-122.308;2024-03-29T03:05:05;14.15;;;2.83;;
69057;SDS011;56128;37.534;-122.308;2024-03-29T03:07:33;12.50;;;2.08;;
69057;SDS011;56128;37.534;-122.308;2024-03-29T03:10:18;12.38;;;2.17;;
69057;SDS011;56128;37.534;-122.308;2024-03-29T03:13:02;14.98;;;2.22;;
69057;SDS011;56128;37.534;-122.308;2024-03-29T03:15:29;15.82;;;2.55;;
69057;SDS011;56128;37.534;-122.308;2024-03-29T03:17:55;8.98;;;2.47;;
69057;SDS011;56128;37.534;-122.308;2024-03-29T03:20:21;15.52;;;2.55;;
69057;SDS011;56128;37.534;-122.308;2024-03-29T03:22:48;10.23;;;2.20;;
69057;SDS011;56128;37.534;-122.308;2024-03-29T03:25:17;14.32;;;2.65;;
69057;SDS011;56128;37.534;-122.308;2024-03-29T03:27:43;14.85;;;3.33;;
69057;SDS011;56128;37.534;-122.308;2024-03-29T03:30:09;8.77;;;2.35;;
69057;SDS011;56128;37.534;-122.308;2024-03-29T03:32:36;9.95;;;2.35;;
69057;SDS011;56128;37.534;-122.308;2024-03-29T03:35:02;7.65;;;2.10;;
69057;SDS011;56128;37.534;-122.308;2024-03-29T03:37:28;15.05;;;2.65;;
69057;SDS011;56128;37.534;-122.308;2024-03-29T03:39:54;9.68;;;2.88;;
69057;SDS011;56128;37.534;-122.308;2024-03-29T03:42:21;9.80;;;2.47;;
69057;SDS011;56128;37.534;-122.308;2024-03-29T03:44:47;11.48;;;2.45;;
69057;SDS011;56128;37.534;-122.308;2024-03-29T03:47:13;12.65;;;2.78;;
69057;SDS011;56128;37.534;-122.308;2024-03-29T03:49:39;9.30;;;2.35;;
69057;SDS011;56128;37.534;-122.308;2024-03-29T03:52:05;13.65;;;2.53;;
69057;SDS011;56128;37.534;-122.308;2024-03-29T03:54:32;10.57;;;2.20;;
69057;SDS011;56128;37.534;-122.308;2024-03-29T03:56:58;13.82;;;2.92;;
69057;SDS011;56128;37.534;-122.308;2024-03-29T03:59:24;16.83;;;2.42;;
69057;SDS011;56128;37.534;-122.308;2024-03-29T04:01:50;11.57;;;2.20;;
69057;SDS011;56128;37.534;-122.308;2024-03-29T04:04:17;15.27;;;2.75;;
69057;SDS011;56128;37.534;-122.308;2024-03-29T04:06:44;16.90;;;2.42;;
69057;SDS011;56128;37.534;-122.308;2024-03-29T04:09:10;9.77;;;2.47;;
69057;SDS011;56128;37.534;-122.308;2024-03-29T04:11:36;10.80;;;2.05;;
69057;SDS011;56128;37.534;-122.308;2024-03-29T04:14:02;11.43;;;2.33;;
69057;SDS011;56128;37.534;-122.308;2024-03-29T04:16:28;11.75;;;2.38;;
69057;SDS011;56128;37.534;-122.308;2024-03-29T04:18:55;15.38;;;2.42;;
69057;SDS011;56128;37.534;-122.308;2024-03-29T04:21:21;12.75;;;3.15;;
69057;SDS011;56128;37.534;-122.308;2024-03-29T04:23:47;13.00;;;2.70;;
69057;SDS011;56128;37.534;-122.308;2024-03-29T04:26:13;18.77;;;2.75;;
69057;SDS011;56128;37.534;-122.308;2024-03-29T04:28:40;13.10;;;2.38;;
69057;SDS011;56128;37.534;-122.308;2024-03-29T04:31:06;14.48;;;1.98;;
69057;SDS011;56128;37.534;-122.308;2024-03-29T04:33:32;10.80;;;2.60;;
69057;SDS011;56128;37.534;-122.308;2024-03-29T04:36:02;15.57;;;2.70;;
69057;SDS011;56128;37.534;-122.308;2024-03-29T04:38:30;16.77;;;3.17;;
69057;SDS011;56128;37.534;-122.308;2024-03-29T04:40:57;15.98;;;2.50;;
69057;SDS011;56128;37.534;-122.308;2024-03-29T04:43:25;12.80;;;2.47;;
69057;SDS011;56128;37.534;-122.308;2024-03-29T04:46:07;9.95;;;2.30;;
69057;SDS011;56128;37.534;-122.308;2024-03-29T04:48:38;14.40;;;2.58;;
69057;SDS011;56128;37.534;-122.308;2024-03-29T04:51:06;15.65;;;2.60;;
69057;SDS011;56128;37.534;-122.308;2024-03-29T04:53:32;17.88;;;2.75;;
69057;SDS011;56128;37.534;-122.308;2024-03-29T04:56:00;10.35;;;2.60;;
69057;SDS011;56128;37.534;-122.308;2024-03-29T04:58:27;16.90;;;2.80;;
69057;SDS011;56128;37.534;-122.308;2024-03-29T05:00:53;14.32;;;2.47;;
69057;SDS011;56128;37.534;-122.308;2024-03-29T05:03:21;19.52;;;3.00;;
69057;SDS011;56128;37.534;-122.308;2024-03-29T05:05:49;15.00;;;3.42;;
69057;SDS011;56128;37.534;-122.308;2024-03-29T05:08:16;12.45;;;2.25;;
69057;SDS011;56128;37.534;-122.308;2024-03-29T05:10:48;15.60;;;3.17;;
69057;SDS011;56128;37.534;-122.308;2024-03-29T05:13:18;15.65;;;3.05;;
69057;SDS011;56128;37.534;-122.308;2024-03-29T05:15:45;14.13;;;2.92;;
69057;SDS011;56128;37.534;-122.308;2024-03-29T05:18:12;15.50;;;3.17;;
69057;SDS011;56128;37.534;-122.308;2024-03-29T05:20:38;17.98;;;3.10;;
69057;SDS011;56128;37.534;-122.308;2024-03-29T05:25:39;18.42;;;2.75;;
69057;SDS011;56128;37.534;-122.308;2024-03-29T05:28:07;19.15;;;3.03;;
69057;SDS011;56128;37.534;-122.308;2024-03-29T05:30:33;16.08;;;2.92;;
69057;SDS011;56128;37.534;-122.308;2024-03-29T05:33:02;16.00;;;2.88;;
69057;SDS011;56128;37.534;-122.308;2024-03-29T05:35:29;18.75;;;3.35;;
69057;SDS011;56128;37.534;-122.308;2024-03-29T05:37:56;18.23;;;3.70;;
69057;SDS011;56128;37.534;-122.308;2024-03-29T05:40:23;27.83;;;4.18;;
69057;SDS011;56128;37.534;-122.308;2024-03-29T05:42:52;15.48;;;2.78;;
69057;SDS011;56128;37.534;-122.308;2024-03-29T05:45:26;24.55;;;3.60;;
69057;SDS011;56128;37.534;-122.308;2024-03-29T05:47:54;19.73;;;3.28;;
69057;SDS011;56128;37.534;-122.308;2024-03-29T05:50:21;21.48;;;3.75;;
69057;SDS011;56128;37.534;-122.308;2024-03-29T05:52:49;20.95;;;3.28;;
69057;SDS011;56128;37.534;-122.308;2024-03-29T05:55:16;23.40;;;3.90;;
69057;SDS011;56128;37.534;-122.308;2024-03-29T05:57:43;21.75;;;3.22;;
69057;SDS011;56128;37.534;-122.308;2024-03-29T06:00:13;18.58;;;3.75;;
69057;SDS011;56128;37.534;-122.308;2024-03-29T06:02:40;17.95;;;3.30;;
69057;SDS011;56128;37.534;-122.308;2024-03-29T06:05:08;21.23;;;3.65;;
69057;SDS011;56128;37.534;-122.308;2024-03-29T06:07:34;19.98;;;3.67;;
69057;SDS011;56128;37.534;-122.308;2024-03-29T06:10:01;22.88;;;3.90;;
69057;SDS011;56128;37.534;-122.308;2024-03-29T06:12:31;17.67;;;3.38;;
69057;SDS011;56128;37.534;-122.308;2024-03-29T06:14:57;21.95;;;3.65;;
69057;SDS011;56128;37.534;-122.308;2024-03-29T06:17:42;26.73;;;3.83;;
69057;SDS011;56128;37.534;-122.308;2024-03-29T06:20:10;26.17;;;3.67;;
69057;SDS011;56128;37.534;-122.308;2024-03-29T06:22:36;24.67;;;3.72;;
69057;SDS011;56128;37.534;-122.308;2024-03-29T06:25:02;22.73;;;3.70;;
69057;SDS011;56128;37.534;-122.308;2024-03-29T06:27:32;19.88;;;3.83;;
69057;SDS011;56128;37.534;-122.308;2024-03-29T06:29:58;19.50;;;3.85;;
69057;SDS011;56128;37.534;-122.308;2024-03-29T06:32:25;21.17;;;3.78;;
69057;SDS011;56128;37.534;-122.308;2024-03-29T06:34:51;24.05;;;3.88;;
69057;SDS011;56128;37.534;-122.308;2024-03-29T06:37:18;22.90;;;3.63;;
69057;SDS011;56128;37.534;-122.308;2024-03-29T06:39:47;28.35;;;3.90;;
69057;SDS011;56128;37.534;-122.308;2024-03-29T06:42:14;24.45;;;3.83;;
69057;SDS011;56128;37.534;-122.308;2024-03-29T06:44:40;18.75;;;3.47;;
69057;SDS011;56128;37.534;-122.308;2024-03-29T06:47:09;20.38;;;3.58;;
69057;SDS011;56128;37.534;-122.308;2024-03-29T06:49:37;20.75;;;3.65;;
69057;SDS011;56128;37.534;-122.308;2024-03-29T06:52:04;19.95;;;3.75;;
69057;SDS011;56128;37.534;-122.308;2024-03-29T06:54:30;20.55;;;3.72;;
69057;SDS011;56128;37.534;-122.308;2024-03-29T06:56:58;16.90;;;4.20;;
69057;SDS011;56128;37.534;-122.308;2024-03-29T06:59:24;25.23;;;4.32;;
69057;SDS011;56128;37.534;-122.308;2024-03-29T07:01:50;25.95;;;4.15;;
69057;SDS011;56128;37.534;-122.308;2024-03-29T07:04:20;30.90;;;3.95;;
69057;SDS011;56128;37.534;-122.308;2024-03-29T07:06:50;23.58;;;4.10;;
69057;SDS011;56128;37.534;-122.308;2024-03-29T07:09:20;22.92;;;4.03;;
69057;SDS011;56128;37.534;-122.308;2024-03-29T07:11:48;19.30;;;3.42;;
69057;SDS011;56128;37.534;-122.308;2024-03-29T07:14:16;31.95;;;4.10;;
69057;SDS011;56128;37.534;-122.308;2024-03-29T07:16:44;22.27;;;3.40;;
69057;SDS011;56128;37.534;-122.308;2024-03-29T07:19:11;20.60;;;4.05;;
69057;SDS011;56128;37.534;-122.308;2024-03-29T07:21:39;24.80;;;3.33;;
69057;SDS011;56128;37.534;-122.308;2024-03-29T07:24:05;24.35;;;3.85;;
69057;SDS011;56128;37.534;-122.308;2024-03-29T07:26:32;36.90;;;4.80;;
69057;SDS011;56128;37.534;-122.308;2024-03-29T07:28:58;28.70;;;4.03;;
69057;SDS011;56128;37.534;-122.308;2024-03-29T07:31:25;29.02;;;4.82;;
69057;SDS011;56128;37.534;-122.308;2024-03-29T07:33:51;23.75;;;3.40;;
69057;SDS011;56128;37.534;-122.308;2024-03-29T07:36:18;20.73;;;3.78;;
69057;SDS011;56128;37.534;-122.308;2024-03-29T07:38:44;22.17;;;3.58;;
69057;SDS011;56128;37.534;-122.308;2024-03-29T07:41:10;21.65;;;3.85;;
69057;SDS011;56128;37.534;-122.308;2024-03-29T07:43:38;21.38;;;3.85;;
69057;SDS011;56128;37.534;-122.308;2024-03-29T07:46:06;34.10;;;4.03;;
69057;SDS011;56128;37.534;-122.308;2024-03-29T07:48:35;26.08;;;3.80;;
69057;SDS011;56128;37.534;-122.308;2024-03-29T07:51:02;27.42;;;4.10;;
69057;SDS011;56128;37.534;-122.308;2024-03-29T07:53:28;21.58;;;3.90;;
69057;SDS011;56128;37.534;-122.308;2024-03-29T07:55:54;30.92;;;3.95;;
69057;SDS011;56128;37.534;-122.308;2024-03-29T07:58:21;32.65;;;3.72;;
69057;SDS011;56128;37.534;-122.308;2024-03-29T08:00:47;28.58;;;3.92;;
69057;SDS011;56128;37.534;-122.308;2024-03-29T08:03:13;23.58;;;3.55;;
69057;SDS011;56128;37.534;-122.308;2024-03-29T08:05:39;21.23;;;3.35;;
69057;SDS011;56128;37.534;-122.308;2024-03-29T08:08:06;23.30;;;4.00;;
69057;SDS011;56128;37.534;-122.308;2024-03-29T08:10:32;27.35;;;3.97;;
69057;SDS011;56128;37.534;-122.308;2024-03-29T08:12:58;27.67;;;3.80;;
69057;SDS011;56128;37.534;-122.308;2024-03-29T08:15:26;23.63;;;3.58;;
69057;SDS011;56128;37.534;-122.308;2024-03-29T08:17:52;22.73;;;3.90;;
69057;SDS011;56128;37.534;-122.308;2024-03-29T08:20:19;23.73;;;3.78;;
69057;SDS011;56128;37.534;-122.308;2024-03-29T08:22:45;23.83;;;3.80;;
69057;SDS011;56128;37.534;-122.308;2024-03-29T08:25:11;26.20;;;4.20;;
69057;SDS011;56128;37.534;-122.308;2024-03-29T08:27:37;23.75;;;4.32;;
69057;SDS011;56128;37.534;-122.308;2024-03-29T08:30:04;19.58;;;3.47;;
69057;SDS011;56128;37.534;-122.308;2024-03-29T08:32:31;25.92;;;4.35;;
69057;SDS011;56128;37.534;-122.308;2024-03-29T08:34:58;23.45;;;3.42;;
69057;SDS011;56128;37.534;-122.308;2024-03-29T08:37:24;23.80;;;3.80;;
69057;SDS011;56128;37.534;-122.308;2024-03-29T08:39:50;21.15;;;3.13;;
69057;SDS011;56128;37.534;-122.308;2024-03-29T08:42:16;18.38;;;3.70;;
69057;SDS011;56128;37.534;-122.308;2024-03-29T08:44:42;22.73;;;3.33;;
69057;SDS011;56128;37.534;-122.308;2024-03-29T08:47:09;25.00;;;3.75;;
69057;SDS011;56128;37.534;-122.308;2024-03-29T08:49:36;28.42;;;3.90;;
69057;SDS011;56128;37.534;-122.308;2024-03-29T08:52:02;24.35;;;3.85;;
69057;SDS011;56128;37.534;-122.308;2024-03-29T08:54:30;25.15;;;3.72;;
69057;SDS011;56128;37.534;-122.308;2024-03-29T08:56:57;25.30;;;3.03;;
69057;SDS011;56128;37.534;-122.308;2024-03-29T08:59:24;25.92;;;3.53;;
69057;SDS011;56128;37.534;-122.308;2024-03-29T09:01:50;21.90;;;3.35;;
69057;SDS011;56128;37.534;-122.308;2024-03-29T09:04:18;32.53;;;3.78;;
69057;SDS011;56128;37.534;-122.308;2024-03-29T09:06:45;24.42;;;3.33;;
69057;SDS011;56128;37.534;-122.308;2024-03-29T09:09:11;22.10;;;3.03;;
69057;SDS011;56128;37.534;-122.308;2024-03-29T09:11:38;24.67;;;3.63;;
69057;SDS011;56128;37.534;-122.308;2024-03-29T09:14:05;20.85;;;3.50;;
69057;SDS011;56128;37.534;-122.308;2024-03-29T09:16:35;19.60;;;3.10;;
69057;SDS011;56128;37.534;-122.308;2024-03-29T09:19:01;20.92;;;2.85;;
69057;SDS011;56128;37.534;-122.308;2024-03-29T09:21:27;19.27;;;2.97;;
69057;SDS011;56128;37.534;-122.308;2024-03-29T09:23:53;22.50;;;3.25;;
69057;SDS011;56128;37.534;-122.308;2024-03-29T09:26:20;21.88;;;3.10;;
69057;SDS011;56128;37.534;-122.308;2024-03-29T09:28:46;27.08;;;3.20;;
69057;SDS011;56128;37.534;-122.308;2024-03-29T09:31:12;17.67;;;3.42;;
69057;SDS011;56128;37.534;-122.308;2024-03-29T09:33:38;21.83;;;3.40;;
69057;SDS011;56128;37.534;-122.308;2024-03-29T09:36:04;20.52;;;3.85;;
69057;SDS011;56128;37.534;-122.308;2024-03-29T09:38:31;16.48;;;2.65;;
69057;SDS011;56128;37.534;-122.308;2024-03-29T09:41:01;19.77;;;2.90;;
69057;SDS011;56128;37.534;-122.308;2024-03-29T09:43:35;23.73;;;3.13;;
69057;SDS011;56128;37.534;-122.308;2024-03-29T09:46:04;21.52;;;3.58;;
69057;SDS011;56128;37.534;-122.308;2024-03-29T09:48:31;23.50;;;3.00;;
69057;SDS011;56128;37.534;-122.308;2024-03-29T09:51:03;23.35;;;3.15;;
69057;SDS011;56128;37.534;-122.308;2024-03-29T09:53:36;14.15;;;3.00;;
69057;SDS011;56128;37.534;-122.308;2024-03-29T09:56:03;23.17;;;3.55;;
69057;SDS011;56128;37.534;-122.308;2024-03-29T09:58:33;21.73;;;3.20;;
69057;SDS011;56128;37.534;-122.308;2024-03-29T10:01:03;18.60;;;2.78;;
69057;SDS011;56128;37.534;-122.308;2024-03-29T10:03:31;21.08;;;3.47;;
69057;SDS011;56128;37.534;-122.308;2024-03-29T10:06:00;25.15;;;3.08;;
69057;SDS011;56128;37.534;-122.308;2024-03-29T10:08:28;25.65;;;3.60;;
69057;SDS011;56128;37.534;-122.308;2024-03-29T10:10:56;23.17;;;3.17;;
69057;SDS011;56128;37.534;-122.308;2024-03-29T10:13:23;19.10;;;3.10;;
69057;SDS011;56128;37.534;-122.308;2024-03-29T10:15:50;19.55;;;2.78;;
69057;SDS011;56128;37.534;-122.308;2024-03-29T10:18:19;26.40;;;3.35;;
69057;SDS011;56128;37.534;-122.308;2024-03-29T10:20:45;20.00;;;3.20;;
69057;SDS011;56128;37.534;-122.308;2024-03-29T10:23:12;22.23;;;2.78;;
69057;SDS011;56128;37.534;-122.308;2024-03-29T10:25:39;19.75;;;2.83;;
69057;SDS011;56128;37.534;-122.308;2024-03-29T10:28:05;19.08;;;2.85;;
69057;SDS011;56128;37.534;-122.308;2024-03-29T10:30:31;24.75;;;3.22;;
69057;SDS011;56128;37.534;-122.308;2024-03-29T10:32:58;13.20;;;2.75;;
69057;SDS011;56128;37.534;-122.308;2024-03-29T10:35:25;15.30;;;3.05;;
69057;SDS011;56128;37.534;-122.308;2024-03-29T10:37:55;19.98;;;2.72;;
69057;SDS011;56128;37.534;-122.308;2024-03-29T10:40:21;16.33;;;2.78;;
69057;SDS011;56128;37.534;-122.308;2024-03-29T10:42:49;19.02;;;3.50;;
69057;SDS011;56128;37.534;-122.308;2024-03-29T10:45:17;13.40;;;2.63;;
69057;SDS011;56128;37.534;-122.308;2024-03-29T10:47:46;20.95;;;2.97;;
69057;SDS011;56128;37.534;-122.308;2024-03-29T10:50:13;15.07;;;2.83;;
69057;SDS011;56128;37.534;-122.308;2024-03-29T10:52:40;18.20;;;2.88;;
69057;SDS011;56128;37.534;-122.308;2024-03-29T10:55:10;17.83;;;2.90;;
69057;SDS011;56128;37.534;-122.308;2024-03-29T10:57:40;19.30;;;3.20;;
69057;SDS011;56128;37.534;-122.308;2024-03-29T11:00:08;18.08;;;3.20;;
69057;SDS011;56128;37.534;-122.308;2024-03-29T11:02:48;18.65;;;2.72;;
69057;SDS011;56128;37.534;-122.308;2024-03-29T11:05:38;14.15;;;2.95;;
69057;SDS011;56128;37.534;-122.308;2024-03-29T11:08:12;13.38;;;2.85;;
69057;SDS011;56128;37.534;-122.308;2024-03-29T11:10:44;15.48;;;2.65;;
69057;SDS011;56128;37.534;-122.308;2024-03-29T11:13:48;15.60;;;2.65;;
69057;SDS011;56128;37.534;-122.308;2024-03-29T11:16:07;13.48;;;2.55;;
69057;SDS011;56128;37.534;-122.308;2024-03-29T11:18:34;14.82;;;2.78;;
69057;SDS011;56128;37.534;-122.308;2024-03-29T11:21:02;17.90;;;2.88;;
69057;SDS011;56128;37.534;-122.308;2024-03-29T11:23:31;16.88;;;3.05;;
69057;SDS011;56128;37.534;-122.308;2024-03-29T11:25:58;21.67;;;3.05;;
69057;SDS011;56128;37.534;-122.308;2024-03-29T11:31:01;19.95;;;3.08;;
69057;SDS011;56128;37.534;-122.308;2024-03-29T11:33:33;22.73;;;3.15;;
69057;SDS011;56128;37.534;-122.308;2024-03-29T11:36:12;19.73;;;2.92;;
69057;SDS011;56128;37.534;-122.308;2024-03-29T11:38:39;16.80;;;2.85;;
69057;SDS011;56128;37.534;-122.308;2024-03-29T11:43:37;17.30;;;2.80;;
69057;SDS011;56128;37.534;-122.308;2024-03-29T11:46:08;19.70;;;3.10;;
69057;SDS011;56128;37.534;-122.308;2024-03-29T11:48:35;19.27;;;3.00;;
69057;SDS011;56128;37.534;-122.308;2024-03-29T11:51:03;21.40;;;3.17;;
69057;SDS011;56128;37.534;-122.308;2024-03-29T11:53:30;17.45;;;4.07;;
69057;SDS011;56128;37.534;-122.308;2024-03-29T11:55:57;24.13;;;3.63;;
69057;SDS011;56128;37.534;-122.308;2024-03-29T11:58:25;18.92;;;3.17;;
69057;SDS011;56128;37.534;-122.308;2024-03-29T12:00:53;17.25;;;2.95;;
69057;SDS011;56128;37.534;-122.308;2024-03-29T12:03:21;20.17;;;2.58;;
69057;SDS011;56128;37.534;-122.308;2024-03-29T12:05:50;16.05;;;3.13;;
69057;SDS011;56128;37.534;-122.308;2024-03-29T12:08:20;15.05;;;3.00;;
69057;SDS011;56128;37.534;-122.308;2024-03-29T12:10:47;12.35;;;2.45;;
69057;SDS011;56128;37.534;-122.308;2024-03-29T12:13:15;17.17;;;2.60;;
69057;SDS011;56128;37.534;-122.308;2024-03-29T12:15:42;15.73;;;2.53;;
69057;SDS011;56128;37.534;-122.308;2024-03-29T12:18:08;17.25;;;2.70;;
69057;SDS011;56128;37.534;-122.308;2024-03-29T12:20:37;19.83;;;3.42;;
69057;SDS011;56128;37.534;-122.308;2024-03-29T12:23:08;9.93;;;2.47;;
69057;SDS011;56128;37.534;-122.308;2024-03-29T12:25:36;10.27;;;2.80;;
69057;SDS011;56128;37.534;-122.308;2024-03-29T12:28:03;17.63;;;2.78;;
69057;SDS011;56128;37.534;-122.308;2024-03-29T12:30:30;14.18;;;2.40;;
69057;SDS011;56128;37.534;-122.308;2024-03-29T12:33:11;17.23;;;2.90;;
69057;SDS011;56128;37.534;-122.308;2024-03-29T12:35:44;13.32;;;2.63;;
69057;SDS011;56128;37.534;-122.308;2024-03-29T12:38:15;12.95;;;2.40;;
69057;SDS011;56128;37.534;-122.308;2024-03-29T12:40:43;13.40;;;2.22;;
69057;SDS011;56128;37.534;-122.308;2024-03-29T12:43:13;18.23;;;2.72;;
69057;SDS011;56128;37.534;-122.308;2024-03-29T12:45:42;12.38;;;2.75;;
69057;SDS011;56128;37.534;-122.308;2024-03-29T12:48:09;13.50;;;2.38;;
69057;SDS011;56128;37.534;-122.308;2024-03-29T12:50:36;12.55;;;2.20;;
69057;SDS011;56128;37.534;-122.308;2024-03-29T12:53:08;18.38;;;2.63;;
69057;SDS011;56128;37.534;-122.308;2024-03-29T12:55:36;19.77;;;2.65;;
69057;SDS011;56128;37.534;-122.308;2024-03-29T12:58:07;10.82;;;2.03;;
69057;SDS011;56128;37.534;-122.308;2024-03-29T13:00:36;15.40;;;2.38;;
69057;SDS011;56128;37.534;-122.308;2024-03-29T13:03:04;12.38;;;2.20;;
69057;SDS011;56128;37.534;-122.308;2024-03-29T13:05:30;11.40;;;2.10;;
69057;SDS011;56128;37.534;-122.308;2024-03-29T13:08:01;12.98;;;2.50;;
69057;SDS011;56128;37.534;-122.308;2024-03-29T13:10:29;12.80;;;2.58;;
69057;SDS011;56128;37.534;-122.308;2024-03-29T13:12:55;12.38;;;2.40;;
69057;SDS011;56128;37.534;-122.308;2024-03-29T13:15:22;11.52;;;2.97;;
69057;SDS011;56128;37.534;-122.308;2024-03-29T13:17:50;9.80;;;1.90;;
69057;SDS011;56128;37.534;-122.308;2024-03-29T13:20:18;11.38;;;2.42;;
69057;SDS011;56128;37.534;-122.308;2024-03-29T13:22:45;10.35;;;2.33;;
69057;SDS011;56128;37.534;-122.308;2024-03-29T13:25:14;10.48;;;2.08;;
69057;SDS011;56128;37.534;-122.308;2024-03-29T13:27:44;13.02;;;1.95;;
69057;SDS011;56128;37.534;-122.308;2024-03-29T13:30:12;8.38;;;2.42;;
69057;SDS011;56128;37.534;-122.308;2024-03-29T13:32:42;9.80;;;2.13;;
69057;SDS011;56128;37.534;-122.308;2024-03-29T13:35:11;8.40;;;2.13;;
69057;SDS011;56128;37.534;-122.308;2024-03-29T13:37:40;15.55;;;2.45;;
69057;SDS011;56128;37.534;-122.308;2024-03-29T13:40:15;13.32;;;2.17;;
69057;SDS011;56128;37.534;-122.308;2024-03-29T13:42:42;11.55;;;1.95;;
69057;SDS011;56128;37.534;-122.308;2024-03-29T13:45:09;10.02;;;2.25;;
69057;SDS011;56128;37.534;-122.308;2024-03-29T13:47:40;8.27;;;2.22;;
69057;SDS011;56128;37.534;-122.308;2024-03-29T13:50:07;8.90;;;2.05;;
69057;SDS011;56128;37.534;-122.308;2024-03-29T13:52:35;12.75;;;2.22;;
69057;SDS011;56128;37.534;-122.308;2024-03-29T13:55:02;14.23;;;1.80;;
69057;SDS011;56128;37.534;-122.308;2024-03-29T13:57:30;12.57;;;2.28;;
69057;SDS011;56128;37.534;-122.308;2024-03-29T13:59:57;13.35;;;2.35;;
69057;SDS011;56128;37.534;-122.308;2024-03-29T14:02:27;8.52;;;2.22;;
69057;SDS011;56128;37.534;-122.308;2024-03-29T14:04:54;12.18;;;2.25;;
69057;SDS011;56128;37.534;-122.308;2024-03-29T14:07:22;10.43;;;2.10;;
69057;SDS011;56128;37.534;-122.308;2024-03-29T14:09:52;9.85;;;1.92;;